Observation data for Dora on 02/14/2017      Previous  Date  Next       Current Mesonet Observations  Soil Data  Daily Summary Page  Observations in Plain Language
KDR1 140600Z 33011KT 03/02 A3003 RMK A01 T00260024  RH  100%=      5-min Rain = 0
KDR1 140605Z 33011KT 03/02 A3004 RMK A01 T00260024  RH  100%=      5-min Rain = 0
KDR1 140610Z 33010KT 03/03 A3004 RMK A01 T00270025  RH  100%=      5-min Rain = 0
KDR1 140615Z 33010KT 03/03 A3004 RMK A01 T00270026  RH  100%=      5-min Rain = 0
KDR1 140620Z 33010KT 03/03 A3004 RMK A01 T00280026  RH  100%=      5-min Rain = 0
KDR1 140625Z 33010KT 03/03 A3004 RMK A01 T00280026  RH  100%=      5-min Rain = 0
KDR1 140630Z 33010KT 03/03 A3004 RMK A01 T00280027  RH  100%=      5-min Rain = 0
KDR1 140635Z 33011KT 03/03 A3004 RMK A01 T00290027  RH  100%=      5-min Rain = 0
KDR1 140640Z 33011KT 03/03 A3004 RMK A01 T00290027  RH  100%=      5-min Rain = 0
KDR1 140645Z 33011KT 03/03 A3004 RMK A01 T00290027  RH  100%=      5-min Rain = 0
KDR1 140650Z 33011KT 03/03 A3004 RMK A01 T00290028  RH  100%=      5-min Rain = 0
KDR1 140655Z 33012KT 03/03 A3004 RMK A01 T00290028  RH  100%=      5-min Rain = 0
KDR1 140700Z 33012KT 03/03 A3004 RMK A01 T00290027  RH  100%=      5-min Rain = 0
KDR1 140705Z 33010KT 03/03 A3004 RMK A01 T00300028  RH  100%=      5-min Rain = 0
KDR1 140710Z 34009KT 03/03 A3005 RMK A01 T00300028  RH  100%=      5-min Rain = 0
KDR1 140715Z 33009KT 03/03 A3005 RMK A01 T00300028  RH  100%=      5-min Rain = 0
KDR1 140720Z 34009KT 03/03 A3005 RMK A01 T00300028  RH  100%=      5-min Rain = 0
KDR1 140725Z 33008KT 03/03 A3005 RMK A01 T00300028  RH  100%=      5-min Rain = 0
KDR1 140730Z 33008KT 03/03 A3006 RMK A01 T00300028  RH  100%=      5-min Rain = 0
KDR1 140735Z 33007KT 03/03 A3006 RMK A01 T00310029  RH  100%=      5-min Rain = 0
KDR1 140740Z 34008KT 03/03 A3006 RMK A01 T00310029  RH  100%=      5-min Rain = 0
KDR1 140745Z 34008KT 03/03 A3006 RMK A01 T00310029  RH  100%=      5-min Rain = 0
KDR1 140750Z 33008KT 03/03 A3006 RMK A01 T00310029  RH  100%=      5-min Rain = 0
KDR1 140755Z 34007KT 03/03 A3006 RMK A01 T00310029  RH  100%=      5-min Rain = 0
KDR1 140800Z 34008KT 03/03 A3006 RMK A01 T00310029  RH  100%=      5-min Rain = 0
KDR1 140805Z 34008KT 03/03 A3006 RMK A01 T00310029  RH  100%=      5-min Rain = 0
KDR1 140810Z 34008KT 03/03 A3006 RMK A01 T00310029  RH  100%=      5-min Rain = 0
KDR1 140815Z 33008KT 03/03 A3006 RMK A01 T00310029  RH  100%=      5-min Rain = 0.01
KDR1 140820Z 33007KT 03/03 A3006 RMK A01 T00310030  RH  100%=      5-min Rain = 0
KDR1 140825Z 33007KT 03/03 A3006 RMK A01 T00310030  RH  100%=      5-min Rain = 0
KDR1 140830Z 32008KT 03/03 A3006 RMK A01 T00320030  RH  100%=      5-min Rain = 0
KDR1 140835Z 32008KT 03/03 A3006 RMK A01 T00310030  RH  100%=      5-min Rain = 0
KDR1 140840Z 32008KT 03/03 A3006 RMK A01 T00320030  RH  100%=      5-min Rain = 0
KDR1 140845Z 32009KT 03/03 A3005 RMK A01 T00320030  RH  100%=      5-min Rain = 0.01
KDR1 140850Z 32009KT 03/03 A3005 RMK A01 T00320030  RH  100%=      5-min Rain = 0
KDR1 140855Z 32009KT 03/03 A3005 RMK A01 T00320030  RH  100%=      5-min Rain = 0.01
KDR1 140900Z 32008KT 03/03 A3005 RMK A01 T00320030  RH  100%=      5-min Rain = 0
KDR1 140905Z 32008KT 03/03 A3005 RMK A01 T00320031  RH  100%=      5-min Rain = 0
KDR1 140910Z 33011G20KT 03/03 A3005 RMK A01 T00320031  RH  100%=      5-min Rain = 0.01
KDR1 140915Z 35010KT 03/03 A3005 RMK A01 T00320030  RH  100%=      5-min Rain = 0
KDR1 140920Z 35013G19KT 03/03 A3005 RMK A01 T00330031  RH  100%=      5-min Rain = 0
KDR1 140925Z 35013KT 03/03 A3005 RMK A01 T00330031  RH  100%=      5-min Rain = 0.01
KDR1 140930Z 35012G18KT 03/03 A3005 RMK A01 T00330032  RH  100%=      5-min Rain = 0
KDR1 140935Z 35014KT 03/03 A3004 RMK A01 T00330031  RH  100%=      5-min Rain = 0
KDR1 140940Z 35016G21KT 03/03 A3004 RMK A01 T00330032  RH  100%=      5-min Rain = 0
KDR1 140945Z 35015G22KT 03/03 A3005 RMK A01 T00330031  RH  100%=      5-min Rain = 0
KDR1 140950Z 35017G22KT 03/03 A3005 RMK A01 T00300029  RH  100%=      5-min Rain = 0
KDR1 140955Z 36019G25KT 03/03 A3005 RMK A01 T00280026  RH  100%=      5-min Rain = 0.01
KDR1 141000Z 36018G26KT 03/03 A3005 RMK A01 T00270025  RH  100%=      5-min Rain = 0
KDR1 141005Z 00018G24KT 03/02 A3005 RMK A01 T00250024  RH  100%=      5-min Rain = 0
KDR1 141010Z 01016G23KT 03/02 A3005 RMK A01 T00250023  RH  100%=      5-min Rain = 0
KDR1 141015Z 00017G23KT 03/02 A3005 RMK A01 T00250024  RH  100%=      5-min Rain = 0
KDR1 141020Z 36017G23KT 03/02 A3005 RMK A01 T00250024  RH  100%=      5-min Rain = 0
KDR1 141025Z 36017KT 03/02 A3005 RMK A01 T00250023  RH  100%=      5-min Rain = 0
KDR1 141030Z 36018G24KT 02/02 A3005 RMK A01 T00230021  RH  100%=      5-min Rain = 0
KDR1 141035Z 36019G25KT 02/02 A3005 RMK A01 T00220020  RH  100%=      5-min Rain = 0
KDR1 141040Z 36020KT 02/02 A3005 RMK A01 T00210019  RH  100%=      5-min Rain = 0
KDR1 141045Z 35017G22KT 02/02 A3005 RMK A01 T00210019  RH  100%=      5-min Rain = 0
KDR1 141050Z 35016KT 02/02 A3005 RMK A01 T00210019  RH  100%=      5-min Rain = 0
KDR1 141055Z 35016G21KT 02/02 A3005 RMK A01 T00210019  RH  100%=      5-min Rain = 0
KDR1 141100Z 35018KT 02/02 A3005 RMK A01 T00210019  RH  100%=      5-min Rain = 0.01
KDR1 141105Z 35019G24KT 02/02 A3005 RMK A01 T00200018  RH  100%=      5-min Rain = 0
KDR1 141110Z 35018KT 02/02 A3005 RMK A01 T00190018  RH  100%=      5-min Rain = 0
KDR1 141115Z 35018G23KT 02/02 A3005 RMK A01 T00180017  RH  100%=      5-min Rain = 0
KDR1 141120Z 35017KT 02/02 A3005 RMK A01 T00180016  RH  100%=      5-min Rain = 0
KDR1 141125Z 34017KT 02/02 A3005 RMK A01 T00180016  RH  100%=      5-min Rain = 0
KDR1 141130Z 35019G24KT 02/02 A3005 RMK A01 T00170015  RH  100%=      5-min Rain = 0
KDR1 141135Z 35019G24KT 02/01 A3005 RMK A01 T00150014  RH  100%=      5-min Rain = 0
KDR1 141140Z 35019G26KT 02/01 A3005 RMK A01 T00150013  RH  100%=      5-min Rain = 0
KDR1 141145Z 35019G24KT 01/01 A3005 RMK A01 T00140013  RH  100%=      5-min Rain = 0
KDR1 141150Z 35020G25KT 01/01 A3005 RMK A01 T00130012  RH  100%=      5-min Rain = 0
KDR1 141155Z 35019G24KT 01/01 A3005 RMK A01 T00130012  RH  100%=      5-min Rain = 0
KDR1 141200Z 35020G25KT 01/01 A3005 RMK A01 T00120011  RH  100%=      5-min Rain = 0
KDR1 141205Z 35021G27KT 01/01 A3005 RMK A01 T00120010  RH  100%=      5-min Rain = 0
KDR1 141210Z 35021G27KT 01/01 A3005 RMK A01 T00120010  RH  100%=      5-min Rain = 0
KDR1 141215Z 34021G26KT 01/01 A3006 RMK A01 T00120010  RH  100%=      5-min Rain = 0
KDR1 141220Z 35020G28KT 01/01 A3006 RMK A01 T00120010  RH  100%=      5-min Rain = 0
KDR1 141225Z 35020G25KT 01/01 A3006 RMK A01 T00120010  RH  100%=      5-min Rain = 0
KDR1 141230Z 35020G27KT 01/01 A3006 RMK A01 T00120010  RH  100%=      5-min Rain = 0
KDR1 141235Z 35022G27KT 01/01 A3006 RMK A01 T00110009  RH  100%=      5-min Rain = 0
KDR1 141240Z 35022G29KT 01/01 A3006 RMK A01 T00100008  RH  100%=      5-min Rain = 0
KDR1 141245Z 35022G29KT 01/01 A3006 RMK A01 T00090008  RH  100%=      5-min Rain = 0
KDR1 141250Z 35020G27KT 01/01 A3007 RMK A01 T00090008  RH  100%=      5-min Rain = 0
KDR1 141255Z 35019G26KT 01/01 A3007 RMK A01 T00090008  RH  100%=      5-min Rain = 0
KDR1 141300Z 35019G24KT 01/01 A3007 RMK A01 T00090007  RH  100%=      5-min Rain = 0
KDR1 141305Z 35019KT 01/01 A3007 RMK A01 T00080007  RH  100%=      5-min Rain = 0
KDR1 141310Z 35020G25KT 01/01 A3007 RMK A01 T00090007  RH  100%=      5-min Rain = 0
KDR1 141315Z 35019G25KT 01/01 A3007 RMK A01 T00090007  RH  100%=      5-min Rain = 0.01
KDR1 141320Z 35019KT 01/01 A3008 RMK A01 T00090007  RH  100%=      5-min Rain = 0
KDR1 141325Z 35018KT 01/01 A3008 RMK A01 T00090008  RH  100%=      5-min Rain = 0
KDR1 141330Z 35016KT 01/01 A3008 RMK A01 T00100008  RH  100%=      5-min Rain = 0
KDR1 141335Z 35016G21KT 01/01 A3008 RMK A01 T00100009  RH  100%=      5-min Rain = 0
KDR1 141340Z 34017KT 01/01 A3009 RMK A01 T00110009  RH  100%=      5-min Rain = 0
KDR1 141345Z 34016KT 01/01 A3009 RMK A01 T00120010  RH  100%=      5-min Rain = 0
KDR1 141350Z 34017KT 01/01 A3009 RMK A01 T00120009  RH  099%=      5-min Rain = 0
KDR1 141355Z 34018G23KT 01/01 A3009 RMK A01 T00120008  RH  099%=      5-min Rain = 0
KDR1 141400Z 34018KT 01/01 A301 RMK A01 T00100007  RH  099%=      5-min Rain = 0
KDR1 141405Z 35017G27KT 01/01 A301 RMK A01 T00090006  RH  099%=      5-min Rain = 0
KDR1 141410Z 01017G24KT 01/01 A3011 RMK A01 T00100007  RH  099%=      5-min Rain = 0
KDR1 141415Z 01022G29KT 01/01 A3011 RMK A01 T00110008  RH  099%=      5-min Rain = 0
KDR1 141420Z 01023G30KT 01/01 A3011 RMK A01 T00110005  RH  097%=      5-min Rain = 0
KDR1 141425Z 01023G32KT 01/00 A3012 RMK A01 T00100003  RH  097%=      5-min Rain = 0
KDR1 141430Z 00020G26KT 01/00 A3012 RMK A01 T00090003  RH  097%=      5-min Rain = 0
KDR1 141435Z 00023G31KT 01/00 A3013 RMK A01 T00070003  RH  098%=      5-min Rain = 0
KDR1 141440Z 00020G27KT 01/00 A3013 RMK A01 T00070003  RH  099%=      5-min Rain = 0
KDR1 141445Z 36017G22KT 01/00 A3013 RMK A01 T00060003  RH  099%=      5-min Rain = 0
KDR1 141450Z 36017G23KT 01/00 A3014 RMK A01 T00050003  RH  100%=      5-min Rain = 0
KDR1 141455Z 00018G24KT 01/00 A3014 RMK A01 T00050003  RH  100%=      5-min Rain = 0
KDR1 141500Z 00017G22KT 00/00 A3014 RMK A01 T00040003  RH  100%=      5-min Rain = 0
KDR1 141505Z 00017G24KT 00/00 A3014 RMK A01 T00040002  RH  100%=      5-min Rain = 0
KDR1 141510Z 36017G23KT 00/00 A3014 RMK A01 T00040002  RH  100%=      5-min Rain = 0
KDR1 141515Z 36016G21KT 00/00 A3015 RMK A01 T00040002  RH  100%=      5-min Rain = 0
KDR1 141520Z 36019G24KT 01/00 A3015 RMK A01 T00050003  RH  100%=      5-min Rain = 0.01
KDR1 141525Z 36019G25KT 01/00 A3015 RMK A01 T00060004  RH  100%=      5-min Rain = 0
KDR1 141530Z 36017G23KT 01/01 A3015 RMK A01 T00060005  RH  100%=      5-min Rain = 0.01
KDR1 141535Z 00019G24KT 01/00 A3015 RMK A01 T00060004  RH  100%=      5-min Rain = 0
KDR1 141540Z 36017G22KT 01/00 A3015 RMK A01 T00050003  RH  100%=      5-min Rain = 0
KDR1 141545Z 00016G22KT 00/00 A3016 RMK A01 T00040003  RH  100%=      5-min Rain = 0
KDR1 141550Z 00012KT 01/00 A3016 RMK A01 T00050003  RH  100%=      5-min Rain = 0
KDR1 141555Z 36012KT 01/00 A3016 RMK A01 T00060004  RH  100%=      5-min Rain = 0
KDR1 141600Z 36015KT 01/00 A3016 RMK A01 T00060004  RH  100%=      5-min Rain = 0
KDR1 141605Z 00017G22KT 01/01 A3015 RMK A01 T00060005  RH  100%=      5-min Rain = 0
KDR1 141610Z 36017G22KT 01/01 A3015 RMK A01 T00080006  RH  100%=      5-min Rain = 0
KDR1 141615Z 36018KT 01/01 A3015 RMK A01 T00090007  RH  100%=      5-min Rain = 0
KDR1 141620Z 35017KT 01/01 A3015 RMK A01 T00100008  RH  100%=      5-min Rain = 0
KDR1 141625Z 35019G26KT 01/01 A3015 RMK A01 T00090008  RH  100%=      5-min Rain = 0
KDR1 141630Z 36021G26KT 01/01 A3015 RMK A01 T00080006  RH  100%=      5-min Rain = 0
KDR1 141635Z 00018G24KT 01/01 A3015 RMK A01 T00090007  RH  100%=      5-min Rain = 0
KDR1 141640Z 00018G23KT 01/01 A3015 RMK A01 T00090007  RH  100%=      5-min Rain = 0.01
KDR1 141645Z 00017KT 02/01 A3015 RMK A01 T00150013  RH  100%=      5-min Rain = 0
KDR1 141650Z 00017KT 02/02 A3015 RMK A01 T00190017  RH  100%=      5-min Rain = 0
KDR1 141655Z 00017G24KT 02/02 A3015 RMK A01 T00200019  RH  100%=      5-min Rain = 0
KDR1 141700Z 01020G25KT 02/02 A3015 RMK A01 T00230021  RH  100%=      5-min Rain = 0
KDR1 141705Z 01019G26KT 02/02 A3015 RMK A01 T00220020  RH  100%=      5-min Rain = 0
KDR1 141710Z 35021G30KT 02/02 A3015 RMK A01 T00180016  RH  100%=      5-min Rain = 0
KDR1 141715Z 36022G29KT 02/01 A3015 RMK A01 T00150013  RH  100%=      5-min Rain = 0
KDR1 141720Z 36025G31KT 02/02 A3015 RMK A01 T00180016  RH  100%=      5-min Rain = 0
KDR1 141725Z 36025G30KT 02/02 A3015 RMK A01 T00180017  RH  100%=      5-min Rain = 0
KDR1 141730Z 36023KT 02/02 A3015 RMK A01 T00190017  RH  100%=      5-min Rain = 0
KDR1 141735Z 36022G28KT 02/02 A3015 RMK A01 T00220019  RH  099%=      5-min Rain = 0
KDR1 141740Z 00020G27KT 02/02 A3016 RMK A01 T00210018  RH  099%=      5-min Rain = 0
KDR1 141745Z 00022G30KT 02/02 A3016 RMK A01 T00220018  RH  099%=      5-min Rain = 0
KDR1 141750Z 36022G29KT 02/01 A3016 RMK A01 T00190014  RH  098%=      5-min Rain = 0
KDR1 141755Z 00021G26KT 02/02 A3016 RMK A01 T00220017  RH  098%=      5-min Rain = 0
KDR1 141800Z 01019G25KT 02/02 A3016 RMK A01 T00220017  RH  098%=      5-min Rain = 0
KDR1 141805Z 00020G25KT 02/02 A3016 RMK A01 T00220017  RH  098%=      5-min Rain = 0
KDR1 141810Z 00020G25KT 02/02 A3016 RMK A01 T00210016  RH  098%=      5-min Rain = 0
KDR1 141815Z 00018G24KT 02/01 A3016 RMK A01 T00170012  RH  098%=      5-min Rain = 0
KDR1 141820Z 00016G22KT 02/02 A3016 RMK A01 T00190015  RH  098%=      5-min Rain = 0
KDR1 141825Z 00018G23KT 02/02 A3016 RMK A01 T00210016  RH  098%=      5-min Rain = 0
KDR1 141830Z 00019G25KT 02/02 A3016 RMK A01 T00220016  RH  097%=      5-min Rain = 0
KDR1 141835Z 01018G25KT 02/01 A3016 RMK A01 T00200012  RH  096%=      5-min Rain = 0
KDR1 141840Z 01018G24KT 02/01 A3015 RMK A01 T00210012  RH  095%=      5-min Rain = 0
KDR1 141845Z 01018G24KT 02/01 A3015 RMK A01 T00210012  RH  095%=      5-min Rain = 0
KDR1 141850Z 01019G24KT 02/01 A3016 RMK A01 T00200010  RH  094%=      5-min Rain = 0
KDR1 141855Z 02017G22KT 02/01 A3016 RMK A01 T00200011  RH  094%=      5-min Rain = 0
KDR1 141900Z 01020G28KT 02/01 A3015 RMK A01 T00240012  RH  093%=      5-min Rain = 0
KDR1 141905Z 01020G26KT 03/01 A3015 RMK A01 T00250009  RH  090%=      5-min Rain = 0
KDR1 141910Z 02019G25KT 02/01 A3015 RMK A01 T00230005  RH  089%=      5-min Rain = 0
KDR1 141915Z 01018G24KT 02/01 A3015 RMK A01 T00230006  RH  089%=      5-min Rain = 0
KDR1 141920Z 01019KT 02/01 A3015 RMK A01 T00230005  RH  089%=      5-min Rain = 0
KDR1 141925Z 01017G26KT 03/01 A3015 RMK A01 T00260007  RH  089%=      5-min Rain = 0
KDR1 141930Z 01022G28KT 03/00 A3015 RMK A01 T00250003  RH  086%=      5-min Rain = 0
KDR1 141935Z 01020KT 03/00 A3015 RMK A01 T00260003  RH  085%=      5-min Rain = 0
KDR1 141940Z 01018G23KT 03/00 A3015 RMK A01 T00280004  RH  085%=      5-min Rain = 0
KDR1 141945Z 01018G23KT 03/00 A3014 RMK A01 T00300003  RH  084%=      5-min Rain = 0
KDR1 141950Z 01019G25KT 03/00 A3014 RMK A01 T00310001  RH  082%=      5-min Rain = 0
KDR1 141955Z 01020KT 03/M00 A3014 RMK A01 T00321002  RH  079%=      5-min Rain = 0
KDR1 142000Z 01020G26KT 03/M00 A3014 RMK A01 T00331001  RH  079%=      5-min Rain = 0
KDR1 142005Z 01019G25KT 04/M00 A3014 RMK A01 T00351002  RH  078%=      5-min Rain = 0
KDR1 142010Z 01021G27KT 04/M01 A3014 RMK A01 T00351010  RH  074%=      5-min Rain = 0
KDR1 142015Z 01020G26KT 04/M01 A3014 RMK A01 T00351011  RH  072%=      5-min Rain = 0
KDR1 142020Z 02020G27KT 04/M02 A3014 RMK A01 T00351016  RH  070%=      5-min Rain = 0
KDR1 142025Z 01016G22KT 04/M01 A3013 RMK A01 T00371011  RH  072%=      5-min Rain = 0
KDR1 142030Z 02019G25KT 04/M02 A3013 RMK A01 T00381015  RH  069%=      5-min Rain = 0
KDR1 142035Z 02020G26KT 04/M02 A3013 RMK A01 T00371019  RH  067%=      5-min Rain = 0
KDR1 142040Z 02017G24KT 04/M02 A3013 RMK A01 T00381017  RH  068%=      5-min Rain = 0
KDR1 142045Z 02018G23KT 04/M02 A3013 RMK A01 T00391019  RH  067%=      5-min Rain = 0
KDR1 142050Z 02015G21KT 04/M01 A3014 RMK A01 T00401014  RH  069%=      5-min Rain = 0
KDR1 142055Z 02017G22KT 04/M02 A3013 RMK A01 T00411015  RH  068%=      5-min Rain = 0
KDR1 142100Z 02019G24KT 04/M02 A3013 RMK A01 T00401022  RH  065%=      5-min Rain = 0
KDR1 142105Z 02017KT 04/M02 A3013 RMK A01 T00411022  RH  064%=      5-min Rain = 0
KDR1 142110Z 02015G22KT 04/M02 A3013 RMK A01 T00421020  RH  065%=      5-min Rain = 0
KDR1 142115Z 03015G20KT 04/M02 A3013 RMK A01 T00421017  RH  067%=      5-min Rain = 0
KDR1 142120Z 04014KT 04/M02 A3013 RMK A01 T00401016  RH  068%=      5-min Rain = 0
KDR1 142125Z 05014KT 04/M01 A3013 RMK A01 T00401014  RH  069%=      5-min Rain = 0
KDR1 142130Z 06014G19KT 03/M01 A3013 RMK A01 T00341014  RH  071%=      5-min Rain = 0
KDR1 142135Z 05013KT 03/M01 A3013 RMK A01 T00331014  RH  072%=      5-min Rain = 0
KDR1 142140Z 05012G17KT 03/M01 A3014 RMK A01 T00331014  RH  072%=      5-min Rain = 0
KDR1 142145Z 05013KT 03/M02 A3014 RMK A01 T00341015  RH  071%=      5-min Rain = 0
KDR1 142150Z 05013KT 03/M02 A3014 RMK A01 T00331017  RH  070%=      5-min Rain = 0
KDR1 142155Z 05014KT 03/M02 A3014 RMK A01 T00321018  RH  071%=      5-min Rain = 0
KDR1 142200Z 05012KT 03/M02 A3014 RMK A01 T00331017  RH  071%=      5-min Rain = 0
KDR1 142205Z 04014KT 03/M02 A3014 RMK A01 T00341019  RH  069%=      5-min Rain = 0
KDR1 142210Z 05013KT 03/M02 A3014 RMK A01 T00331022  RH  067%=      5-min Rain = 0
KDR1 142215Z 05011KT 04/M02 A3014 RMK A01 T00351020  RH  068%=      5-min Rain = 0
KDR1 142220Z 04011KT 04/M02 A3014 RMK A01 T00351023  RH  066%=      5-min Rain = 0
KDR1 142225Z 04010KT 04/M02 A3014 RMK A01 T00351023  RH  066%=      5-min Rain = 0
KDR1 142230Z 04010KT 04/M02 A3015 RMK A01 T00351023  RH  067%=      5-min Rain = 0
KDR1 142235Z 04009KT 04/M02 A3015 RMK A01 T00351024  RH  066%=      5-min Rain = 0
KDR1 142240Z 04009KT 03/M02 A3015 RMK A01 T00341024  RH  067%=      5-min Rain = 0
KDR1 142245Z 03007KT 04/M02 A3015 RMK A01 T00361021  RH  067%=      5-min Rain = 0
KDR1 142250Z 04009KT 04/M02 A3015 RMK A01 T00351024  RH  066%=      5-min Rain = 0
KDR1 142255Z 04008KT 04/M02 A3015 RMK A01 T00351024  RH  066%=      5-min Rain = 0
KDR1 142300Z 05007KT 04/M02 A3015 RMK A01 T00361022  RH  067%=      5-min Rain = 0
KDR1 142305Z 07009KT 03/M02 A3015 RMK A01 T00341020  RH  069%=      5-min Rain = 0
KDR1 142310Z 08009KT 03/M02 A3015 RMK A01 T00311018  RH  071%=      5-min Rain = 0
KDR1 142315Z 08009KT 03/M02 A3016 RMK A01 T00291015  RH  074%=      5-min Rain = 0
KDR1 142320Z 07009KT 03/M02 A3016 RMK A01 T00271017  RH  074%=      5-min Rain = 0
KDR1 142325Z 08009KT 03/M01 A3016 RMK A01 T00261014  RH  076%=      5-min Rain = 0
KDR1 142330Z 08009KT 03/M01 A3016 RMK A01 T00251013  RH  077%=      5-min Rain = 0
KDR1 142335Z 07008KT 02/M01 A3016 RMK A01 T00231013  RH  078%=      5-min Rain = 0
KDR1 142340Z 07008KT 02/M01 A3016 RMK A01 T00241011  RH  078%=      5-min Rain = 0
KDR1 142345Z 08008KT 03/M01 A3016 RMK A01 T00291012  RH  075%=      5-min Rain = 0
KDR1 142350Z 07008KT 03/M02 A3017 RMK A01 T00321016  RH  072%=      5-min Rain = 0
KDR1 142355Z 08007KT 03/M02 A3016 RMK A01 T00321018  RH  071%=      5-min Rain = 0
KDR1 150000Z 08007KT 03/M02 A3016 RMK A01 T00301021  RH  070%=      5-min Rain = 0
KDR1 150005Z 08006KT 03/M02 A3017 RMK A01 T00301020  RH  070%=      5-min Rain = 0
KDR1 150010Z 08006KT 03/M02 A3017 RMK A01 T00291022  RH  070%=      5-min Rain = 0
KDR1 150015Z 09006KT 02/M02 A3017 RMK A01 T00241024  RH  071%=      5-min Rain = 0
KDR1 150020Z 08004KT 02/M02 A3017 RMK A01 T00221023  RH  073%=      5-min Rain = 0
KDR1 150025Z 08005KT 02/M03 A3017 RMK A01 T00221025  RH  072%=      5-min Rain = 0
KDR1 150030Z 09005KT 02/M03 A3017 RMK A01 T00201026  RH  072%=      5-min Rain = 0
KDR1 150035Z 09003KT 02/M03 A3017 RMK A01 T00171028  RH  073%=      5-min Rain = 0
KDR1 150040Z 09002KT 02/M03 A3017 RMK A01 T00151028  RH  074%=      5-min Rain = 0
KDR1 150045Z 11002KT 01/M03 A3017 RMK A01 T00141028  RH  074%=      5-min Rain = 0
KDR1 150050Z 12002KT 01/M03 A3017 RMK A01 T00141029  RH  074%=      5-min Rain = 0
KDR1 150055Z 12002KT 01/M03 A3018 RMK A01 T00101030  RH  075%=      5-min Rain = 0
KDR1 150100Z 13002KT 01/M03 A3018 RMK A01 T00081031  RH  076%=      5-min Rain = 0
KDR1 150105Z 16002KT 01/M03 A3018 RMK A01 T00081028  RH  078%=      5-min Rain = 0
KDR1 150110Z 18003KT 00/M02 A3018 RMK A01 T00041023  RH  083%=      5-min Rain = 0
KDR1 150115Z 19003KT 00/M02 A3019 RMK A01 T00011021  RH  086%=      5-min Rain = 0
KDR1 150120Z 21004KT 00/02 A3019 RMK A01 T00-00-18  RH  088%=      5-min Rain = 0
KDR1 150125Z 20002KT 00/02 A3019 RMK A01 T00000-16  RH  090%=      5-min Rain = 0
KDR1 150130Z 21002KT 00/M01 A3019 RMK A01 T00011014  RH  091%=      5-min Rain = 0
KDR1 150135Z 22003KT 00/M01 A3019 RMK A01 T00021012  RH  092%=      5-min Rain = 0
KDR1 150140Z 22004KT 00/M01 A3019 RMK A01 T00011011  RH  092%=      5-min Rain = 0
KDR1 150145Z 23004KT 00/M01 A3019 RMK A01 T00021010  RH  093%=      5-min Rain = 0
KDR1 150150Z 24004KT 00/M01 A3019 RMK A01 T00031009  RH  093%=      5-min Rain = 0
KDR1 150155Z 23004KT 00/M01 A3019 RMK A01 T00041009  RH  093%=      5-min Rain = 0
KDR1 150200Z 23004KT 00/M01 A3019 RMK A01 T00031009  RH  092%=      5-min Rain = 0
KDR1 150205Z 24005KT 00/M01 A3019 RMK A01 T00031009  RH  092%=      5-min Rain = 0
KDR1 150210Z 24005KT 00/M01 A3019 RMK A01 T00031008  RH  093%=      5-min Rain = 0
KDR1 150215Z 24005KT 00/M01 A302 RMK A01 T00041007  RH  093%=      5-min Rain = 0
KDR1 150220Z 24004KT 00/M01 A302 RMK A01 T00041007  RH  094%=      5-min Rain = 0
KDR1 150225Z 23003KT 01/M01 A302 RMK A01 T00051006  RH  094%=      5-min Rain = 0
KDR1 150230Z 23003KT 01/M01 A302 RMK A01 T00051005  RH  094%=      5-min Rain = 0
KDR1 150235Z 23003KT 01/M01 A3021 RMK A01 T00051005  RH  094%=      5-min Rain = 0
KDR1 150240Z 20003KT 01/M01 A3021 RMK A01 T00061005  RH  094%=      5-min Rain = 0
KDR1 150245Z 20004KT 01/M01 A3021 RMK A01 T00051005  RH  094%=      5-min Rain = 0
KDR1 150250Z 21004KT 01/M00 A3021 RMK A01 T00071003  RH  094%=      5-min Rain = 0
KDR1 150255Z 20004KT 01/M00 A3021 RMK A01 T00071003  RH  094%=      5-min Rain = 0
KDR1 150300Z 20004KT 01/M01 A3021 RMK A01 T00051006  RH  094%=      5-min Rain = 0
KDR1 150305Z 21005KT 00/M01 A3022 RMK A01 T00031008  RH  093%=      5-min Rain = 0
KDR1 150310Z 22005KT 00/M01 A3022 RMK A01 T00021010  RH  093%=      5-min Rain = 0
KDR1 150315Z 22005KT 00/01 A3022 RMK A01 T00-00-12  RH  093%=      5-min Rain = 0
KDR1 150320Z 24006KT M00/M02 A3022 RMK A01 T10031015  RH  093%=      5-min Rain = 0
KDR1 150325Z 23005KT M01/M02 A3022 RMK A01 T10061017  RH  093%=      5-min Rain = 0
KDR1 150330Z 23005KT M01/M02 A3022 RMK A01 T10081018  RH  094%=      5-min Rain = 0
KDR1 150335Z 23007KT M01/M02 A3022 RMK A01 T10091019  RH  094%=      5-min Rain = 0
KDR1 150340Z 24007KT M01/M02 A3022 RMK A01 T10081017  RH  095%=      5-min Rain = 0
KDR1 150345Z 24007KT M01/M02 A3022 RMK A01 T10091018  RH  095%=      5-min Rain = 0
KDR1 150350Z 24008KT M01/M02 A3022 RMK A01 T10101019  RH  095%=      5-min Rain = 0
KDR1 150355Z 24008KT M01/M02 A3022 RMK A01 T10091018  RH  095%=      5-min Rain = 0
KDR1 150400Z 24009KT M01/M02 A3022 RMK A01 T10081019  RH  094%=      5-min Rain = 0
KDR1 150405Z 25009KT M01/M02 A3022 RMK A01 T10091021  RH  093%=      5-min Rain = 0
KDR1 150410Z 25009KT M01/M02 A3022 RMK A01 T10101022  RH  093%=      5-min Rain = 0
KDR1 150415Z 25009KT M01/M02 A3022 RMK A01 T10101022  RH  093%=      5-min Rain = 0
KDR1 150420Z 25009KT M01/M02 A3022 RMK A01 T10101022  RH  092%=      5-min Rain = 0
KDR1 150425Z 25008KT M01/M02 A3022 RMK A01 T10111024  RH  092%=      5-min Rain = 0
KDR1 150430Z 25008KT M01/M02 A3022 RMK A01 T10111024  RH  092%=      5-min Rain = 0
KDR1 150435Z 26007KT M01/M02 A3022 RMK A01 T10091023  RH  092%=      5-min Rain = 0
KDR1 150440Z 26007KT M01/M02 A3022 RMK A01 T10101023  RH  092%=      5-min Rain = 0
KDR1 150445Z 26007KT M01/M02 A3022 RMK A01 T10081022  RH  092%=      5-min Rain = 0
KDR1 150450Z 26008KT M01/M02 A3022 RMK A01 T10071022  RH  091%=      5-min Rain = 0
KDR1 150455Z 26008KT M01/M02 A3022 RMK A01 T10081023  RH  090%=      5-min Rain = 0
KDR1 150500Z 26009KT M01/M03 A3022 RMK A01 T10101025  RH  090%=      5-min Rain = 0
KDR1 150505Z 26009KT M01/M03 A3022 RMK A01 T10131027  RH  091%=      5-min Rain = 0
KDR1 150510Z 26008KT M02/M03 A3022 RMK A01 T10161029  RH  092%=      5-min Rain = 0
KDR1 150515Z 27007KT M02/M03 A3022 RMK A01 T10171029  RH  092%=      5-min Rain = 0
KDR1 150520Z 28008KT M01/M02 A3022 RMK A01 T10101021  RH  093%=      5-min Rain = 0
KDR1 150525Z 28009KT M00/M02 A3022 RMK A01 T10041021  RH  090%=      5-min Rain = 0
KDR1 150530Z 29009KT 00/02 A3022 RMK A01 T00000-21  RH  087%=      5-min Rain = 0
KDR1 150535Z 29010KT 00/M02 A3022 RMK A01 T00041024  RH  082%=      5-min Rain = 0
KDR1 150540Z 29010KT 01/M03 A3022 RMK A01 T00071027  RH  079%=      5-min Rain = 0
KDR1 150545Z 30010KT 01/M03 A3022 RMK A01 T00071029  RH  078%=      5-min Rain = 0
KDR1 150550Z 29010KT 01/M03 A3022 RMK A01 T00071030  RH  078%=      5-min Rain = 0
KDR1 150555Z 29011KT 01/M03 A3022 RMK A01 T00071030  RH  077%=      5-min Rain = 0

Page generated in 0.01 seconds.